sensor_id;sensor_type;location;lat;lon;timestamp;P1;durP1;ratioP1;P2;durP2;ratioP2
62030;SDS011;62035;52.094;5.112;2022-08-01T00:02:25;10.10;;;5.10;;
62030;SDS011;62035;52.094;5.112;2022-08-01T00:04:53;14.80;;;7.15;;
62030;SDS011;62035;52.094;5.112;2022-08-01T00:07:20;11.57;;;6.68;;
62030;SDS011;62035;52.094;5.112;2022-08-01T00:09:48;10.25;;;6.20;;
62030;SDS011;62035;52.094;5.112;2022-08-01T00:12:16;12.48;;;6.07;;
62030;SDS011;62035;52.094;5.112;2022-08-01T00:14:45;10.48;;;5.43;;
62030;SDS011;62035;52.094;5.112;2022-08-01T00:17:12;10.13;;;5.50;;
62030;SDS011;62035;52.094;5.112;2022-08-01T00:19:40;10.65;;;5.40;;
62030;SDS011;62035;52.094;5.112;2022-08-01T00:22:07;8.68;;;4.80;;
62030;SDS011;62035;52.094;5.112;2022-08-01T00:24:35;8.07;;;5.40;;
62030;SDS011;62035;52.094;5.112;2022-08-01T00:27:03;10.18;;;6.35;;
62030;SDS011;62035;52.094;5.112;2022-08-01T00:29:30;9.85;;;5.47;;
62030;SDS011;62035;52.094;5.112;2022-08-01T00:31:59;10.90;;;6.00;;
62030;SDS011;62035;52.094;5.112;2022-08-01T00:34:27;12.55;;;6.68;;
62030;SDS011;62035;52.094;5.112;2022-08-01T00:36:54;10.52;;;5.90;;
62030;SDS011;62035;52.094;5.112;2022-08-01T00:39:22;13.02;;;6.40;;
62030;SDS011;62035;52.094;5.112;2022-08-01T00:41:49;12.65;;;6.93;;
62030;SDS011;62035;52.094;5.112;2022-08-01T00:44:17;12.18;;;6.45;;
62030;SDS011;62035;52.094;5.112;2022-08-01T00:46:45;13.55;;;6.70;;
62030;SDS011;62035;52.094;5.112;2022-08-01T00:49:14;12.80;;;6.47;;
62030;SDS011;62035;52.094;5.112;2022-08-01T00:51:41;12.40;;;7.50;;
62030;SDS011;62035;52.094;5.112;2022-08-01T00:54:09;14.65;;;7.15;;
62030;SDS011;62035;52.094;5.112;2022-08-01T00:56:37;12.05;;;6.45;;
62030;SDS011;62035;52.094;5.112;2022-08-01T00:59:04;11.60;;;5.80;;
62030;SDS011;62035;52.094;5.112;2022-08-01T01:01:34;11.38;;;5.97;;
62030;SDS011;62035;52.094;5.112;2022-08-01T01:04:01;11.52;;;6.18;;
62030;SDS011;62035;52.094;5.112;2022-08-01T01:06:34;12.50;;;5.90;;
62030;SDS011;62035;52.094;5.112;2022-08-01T01:09:21;14.10;;;5.47;;
62030;SDS011;62035;52.094;5.112;2022-08-01T01:12:08;9.75;;;5.15;;
62030;SDS011;62035;52.094;5.112;2022-08-01T01:14:47;12.68;;;5.93;;
62030;SDS011;62035;52.094;5.112;2022-08-01T01:17:26;12.30;;;5.65;;
62030;SDS011;62035;52.094;5.112;2022-08-01T01:19:59;14.65;;;6.80;;
62030;SDS011;62035;52.094;5.112;2022-08-01T01:22:39;13.05;;;6.97;;
62030;SDS011;62035;52.094;5.112;2022-08-01T01:25:32;15.65;;;7.13;;
62030;SDS011;62035;52.094;5.112;2022-08-01T01:28:15;15.80;;;7.72;;
62030;SDS011;62035;52.094;5.112;2022-08-01T01:30:53;13.52;;;7.95;;
62030;SDS011;62035;52.094;5.112;2022-08-01T01:33:25;17.08;;;8.07;;
62030;SDS011;62035;52.094;5.112;2022-08-01T01:35:58;14.88;;;7.35;;
62030;SDS011;62035;52.094;5.112;2022-08-01T01:38:32;14.85;;;8.25;;
62030;SDS011;62035;52.094;5.112;2022-08-01T01:41:07;17.92;;;8.25;;
62030;SDS011;62035;52.094;5.112;2022-08-01T01:43:37;18.15;;;8.35;;
62030;SDS011;62035;52.094;5.112;2022-08-01T01:46:09;19.50;;;8.48;;
62030;SDS011;62035;52.094;5.112;2022-08-01T01:48:39;17.23;;;8.13;;
62030;SDS011;62035;52.094;5.112;2022-08-01T01:51:10;17.40;;;8.50;;
62030;SDS011;62035;52.094;5.112;2022-08-01T01:53:43;15.10;;;7.97;;
62030;SDS011;62035;52.094;5.112;2022-08-01T01:56:12;12.52;;;7.20;;
62030;SDS011;62035;52.094;5.112;2022-08-01T01:58:44;18.75;;;8.25;;
62030;SDS011;62035;52.094;5.112;2022-08-01T02:01:18;15.68;;;6.72;;
62030;SDS011;62035;52.094;5.112;2022-08-01T02:03:51;15.35;;;6.75;;
62030;SDS011;62035;52.094;5.112;2022-08-01T02:06:20;13.95;;;6.63;;
62030;SDS011;62035;52.094;5.112;2022-08-01T02:08:50;12.63;;;6.80;;
62030;SDS011;62035;52.094;5.112;2022-08-01T02:11:21;14.38;;;6.60;;
62030;SDS011;62035;52.094;5.112;2022-08-01T02:13:52;13.52;;;6.65;;
62030;SDS011;62035;52.094;5.112;2022-08-01T02:16:29;13.77;;;6.57;;
62030;SDS011;62035;52.094;5.112;2022-08-01T02:19:02;9.23;;;5.35;;
62030;SDS011;62035;52.094;5.112;2022-08-01T02:21:30;13.10;;;6.63;;
62030;SDS011;62035;52.094;5.112;2022-08-01T02:24:06;8.48;;;5.00;;
62030;SDS011;62035;52.094;5.112;2022-08-01T02:26:43;11.02;;;5.72;;
62030;SDS011;62035;52.094;5.112;2022-08-01T02:29:21;13.43;;;5.93;;
62030;SDS011;62035;52.094;5.112;2022-08-01T02:32:01;11.98;;;6.20;;
62030;SDS011;62035;52.094;5.112;2022-08-01T02:34:31;11.05;;;6.03;;
62030;SDS011;62035;52.094;5.112;2022-08-01T02:37:02;11.32;;;5.55;;
62030;SDS011;62035;52.094;5.112;2022-08-01T02:39:32;11.05;;;6.28;;
62030;SDS011;62035;52.094;5.112;2022-08-01T02:42:04;13.50;;;5.85;;
62030;SDS011;62035;52.094;5.112;2022-08-01T02:47:07;10.02;;;5.53;;
62030;SDS011;62035;52.094;5.112;2022-08-01T02:49:37;11.15;;;6.68;;
62030;SDS011;62035;52.094;5.112;2022-08-01T02:52:11;14.38;;;8.05;;
62030;SDS011;62035;52.094;5.112;2022-08-01T02:54:43;16.40;;;8.63;;
62030;SDS011;62035;52.094;5.112;2022-08-01T02:57:14;15.18;;;8.55;;
62030;SDS011;62035;52.094;5.112;2022-08-01T02:59:44;17.00;;;8.60;;
62030;SDS011;62035;52.094;5.112;2022-08-01T03:02:17;13.88;;;8.25;;
62030;SDS011;62035;52.094;5.112;2022-08-01T03:04:49;15.30;;;8.70;;
62030;SDS011;62035;52.094;5.112;2022-08-01T03:07:20;13.73;;;9.37;;
62030;SDS011;62035;52.094;5.112;2022-08-01T03:09:49;13.77;;;8.20;;
62030;SDS011;62035;52.094;5.112;2022-08-01T03:12:20;14.65;;;8.65;;
62030;SDS011;62035;52.094;5.112;2022-08-01T03:14:54;13.80;;;7.63;;
62030;SDS011;62035;52.094;5.112;2022-08-01T03:17:27;15.13;;;8.10;;
62030;SDS011;62035;52.094;5.112;2022-08-01T03:19:57;14.55;;;6.93;;
62030;SDS011;62035;52.094;5.112;2022-08-01T03:22:29;13.25;;;7.07;;
62030;SDS011;62035;52.094;5.112;2022-08-01T03:24:59;11.65;;;6.80;;
62030;SDS011;62035;52.094;5.112;2022-08-01T03:27:29;14.32;;;6.50;;
62030;SDS011;62035;52.094;5.112;2022-08-01T03:29:59;10.68;;;6.68;;
62030;SDS011;62035;52.094;5.112;2022-08-01T03:32:33;11.30;;;5.97;;
62030;SDS011;62035;52.094;5.112;2022-08-01T03:35:01;10.65;;;5.72;;
62030;SDS011;62035;52.094;5.112;2022-08-01T03:37:29;9.50;;;6.28;;
62030;SDS011;62035;52.094;5.112;2022-08-01T03:40:06;8.88;;;5.80;;
62030;SDS011;62035;52.094;5.112;2022-08-01T03:42:39;10.73;;;5.97;;
62030;SDS011;62035;52.094;5.112;2022-08-01T03:45:14;11.18;;;6.30;;
62030;SDS011;62035;52.094;5.112;2022-08-01T03:47:52;11.77;;;6.05;;
62030;SDS011;62035;52.094;5.112;2022-08-01T03:50:27;11.85;;;6.53;;
62030;SDS011;62035;52.094;5.112;2022-08-01T03:53:00;8.57;;;6.15;;
62030;SDS011;62035;52.094;5.112;2022-08-01T03:55:30;11.77;;;6.10;;
62030;SDS011;62035;52.094;5.112;2022-08-01T03:58:03;10.80;;;5.70;;
62030;SDS011;62035;52.094;5.112;2022-08-01T04:00:32;10.50;;;5.88;;
62030;SDS011;62035;52.094;5.112;2022-08-01T04:03:01;12.93;;;5.82;;
62030;SDS011;62035;52.094;5.112;2022-08-01T04:05:30;9.95;;;5.60;;
62030;SDS011;62035;52.094;5.112;2022-08-01T04:07:58;7.72;;;5.00;;
62030;SDS011;62035;52.094;5.112;2022-08-01T04:10:28;12.15;;;6.10;;
62030;SDS011;62035;52.094;5.112;2022-08-01T04:12:56;9.90;;;5.63;;
62030;SDS011;62035;52.094;5.112;2022-08-01T04:15:23;8.50;;;5.18;;
62030;SDS011;62035;52.094;5.112;2022-08-01T04:17:51;10.32;;;5.20;;
62030;SDS011;62035;52.094;5.112;2022-08-01T04:20:21;8.10;;;5.57;;
62030;SDS011;62035;52.094;5.112;2022-08-01T04:22:49;12.40;;;5.88;;
62030;SDS011;62035;52.094;5.112;2022-08-01T04:25:17;14.77;;;5.97;;
62030;SDS011;62035;52.094;5.112;2022-08-01T04:28:05;8.25;;;5.47;;
62030;SDS011;62035;52.094;5.112;2022-08-01T04:30:42;8.40;;;5.43;;
62030;SDS011;62035;52.094;5.112;2022-08-01T04:33:15;8.98;;;5.57;;
62030;SDS011;62035;52.094;5.112;2022-08-01T04:35:47;11.35;;;5.75;;
62030;SDS011;62035;52.094;5.112;2022-08-01T04:38:18;9.80;;;5.47;;
62030;SDS011;62035;52.094;5.112;2022-08-01T04:40:53;9.25;;;5.72;;
62030;SDS011;62035;52.094;5.112;2022-08-01T04:43:21;10.45;;;5.43;;
62030;SDS011;62035;52.094;5.112;2022-08-01T04:45:50;12.07;;;5.60;;
62030;SDS011;62035;52.094;5.112;2022-08-01T04:48:19;14.43;;;5.65;;
62030;SDS011;62035;52.094;5.112;2022-08-01T04:50:52;9.68;;;5.57;;
62030;SDS011;62035;52.094;5.112;2022-08-01T04:53:20;13.82;;;5.78;;
62030;SDS011;62035;52.094;5.112;2022-08-01T04:55:48;9.20;;;5.45;;
62030;SDS011;62035;52.094;5.112;2022-08-01T04:58:16;9.88;;;5.18;;
62030;SDS011;62035;52.094;5.112;2022-08-01T05:00:44;7.97;;;5.40;;
62030;SDS011;62035;52.094;5.112;2022-08-01T05:03:13;9.65;;;6.05;;
62030;SDS011;62035;52.094;5.112;2022-08-01T05:05:40;8.07;;;5.65;;
62030;SDS011;62035;52.094;5.112;2022-08-01T05:08:09;9.70;;;6.18;;
62030;SDS011;62035;52.094;5.112;2022-08-01T05:10:37;10.90;;;5.60;;
62030;SDS011;62035;52.094;5.112;2022-08-01T05:13:04;10.35;;;5.53;;
62030;SDS011;62035;52.094;5.112;2022-08-01T05:15:33;6.38;;;3.75;;
62030;SDS011;62035;52.094;5.112;2022-08-01T05:18:02;6.47;;;3.40;;
62030;SDS011;62035;52.094;5.112;2022-08-01T05:20:31;4.18;;;2.33;;
62030;SDS011;62035;52.094;5.112;2022-08-01T05:22:58;4.55;;;2.53;;
62030;SDS011;62035;52.094;5.112;2022-08-01T05:25:27;4.35;;;2.85;;
62030;SDS011;62035;52.094;5.112;2022-08-01T05:27:55;3.97;;;2.33;;
62030;SDS011;62035;52.094;5.112;2022-08-01T05:30:22;3.55;;;2.20;;
62030;SDS011;62035;52.094;5.112;2022-08-01T05:32:50;5.43;;;2.08;;
62030;SDS011;62035;52.094;5.112;2022-08-01T05:35:18;5.28;;;2.30;;
62030;SDS011;62035;52.094;5.112;2022-08-01T05:37:45;3.63;;;2.00;;
62030;SDS011;62035;52.094;5.112;2022-08-01T05:40:13;4.03;;;2.30;;
62030;SDS011;62035;52.094;5.112;2022-08-01T05:42:42;3.35;;;2.10;;
62030;SDS011;62035;52.094;5.112;2022-08-01T05:45:09;5.90;;;2.28;;
62030;SDS011;62035;52.094;5.112;2022-08-01T05:47:37;3.67;;;2.40;;
62030;SDS011;62035;52.094;5.112;2022-08-01T05:50:05;3.05;;;2.00;;
62030;SDS011;62035;52.094;5.112;2022-08-01T05:52:34;5.43;;;2.30;;
62030;SDS011;62035;52.094;5.112;2022-08-01T05:55:02;4.03;;;2.30;;
62030;SDS011;62035;52.094;5.112;2022-08-01T05:57:31;6.63;;;2.55;;
62030;SDS011;62035;52.094;5.112;2022-08-01T06:00:00;5.75;;;2.58;;
62030;SDS011;62035;52.094;5.112;2022-08-01T06:02:28;7.85;;;2.60;;
62030;SDS011;62035;52.094;5.112;2022-08-01T06:04:56;5.75;;;2.65;;
62030;SDS011;62035;52.094;5.112;2022-08-01T06:07:24;5.53;;;2.90;;
62030;SDS011;62035;52.094;5.112;2022-08-01T06:09:51;10.60;;;2.97;;
62030;SDS011;62035;52.094;5.112;2022-08-01T06:12:19;7.10;;;2.67;;
62030;SDS011;62035;52.094;5.112;2022-08-01T06:14:46;6.47;;;2.80;;
62030;SDS011;62035;52.094;5.112;2022-08-01T06:17:15;6.20;;;2.92;;
62030;SDS011;62035;52.094;5.112;2022-08-01T06:19:43;6.65;;;3.13;;
62030;SDS011;62035;52.094;5.112;2022-08-01T06:22:10;7.43;;;3.13;;
62030;SDS011;62035;52.094;5.112;2022-08-01T06:24:38;10.73;;;3.10;;
62030;SDS011;62035;52.094;5.112;2022-08-01T06:27:05;11.00;;;3.38;;
62030;SDS011;62035;52.094;5.112;2022-08-01T06:29:33;7.45;;;3.50;;
62030;SDS011;62035;52.094;5.112;2022-08-01T06:32:01;6.95;;;3.40;;
62030;SDS011;62035;52.094;5.112;2022-08-01T06:34:30;7.28;;;3.15;;
62030;SDS011;62035;52.094;5.112;2022-08-01T06:36:57;7.03;;;3.10;;
62030;SDS011;62035;52.094;5.112;2022-08-01T06:39:25;8.50;;;3.08;;
62030;SDS011;62035;52.094;5.112;2022-08-01T06:41:52;7.25;;;3.10;;
62030;SDS011;62035;52.094;5.112;2022-08-01T06:44:20;10.50;;;3.85;;
62030;SDS011;62035;52.094;5.112;2022-08-01T06:46:48;11.45;;;2.95;;
62030;SDS011;62035;52.094;5.112;2022-08-01T06:49:15;10.98;;;3.05;;
62030;SDS011;62035;52.094;5.112;2022-08-01T06:51:44;13.73;;;4.00;;
62030;SDS011;62035;52.094;5.112;2022-08-01T06:54:12;10.30;;;3.30;;
62030;SDS011;62035;52.094;5.112;2022-08-01T06:56:40;12.45;;;3.90;;
62030;SDS011;62035;52.094;5.112;2022-08-01T06:59:07;11.93;;;3.33;;
62030;SDS011;62035;52.094;5.112;2022-08-01T07:01:35;11.65;;;2.58;;
62030;SDS011;62035;52.094;5.112;2022-08-01T07:04:03;11.60;;;3.40;;
62030;SDS011;62035;52.094;5.112;2022-08-01T07:06:31;8.98;;;3.20;;
62030;SDS011;62035;52.094;5.112;2022-08-01T07:09:00;12.00;;;2.83;;
62030;SDS011;62035;52.094;5.112;2022-08-01T07:11:27;10.95;;;2.83;;
62030;SDS011;62035;52.094;5.112;2022-08-01T07:13:55;11.90;;;2.67;;
62030;SDS011;62035;52.094;5.112;2022-08-01T07:16:23;10.27;;;2.75;;
62030;SDS011;62035;52.094;5.112;2022-08-01T07:18:50;11.98;;;2.75;;
62030;SDS011;62035;52.094;5.112;2022-08-01T07:21:18;9.60;;;2.53;;
62030;SDS011;62035;52.094;5.112;2022-08-01T07:23:46;11.45;;;2.78;;
62030;SDS011;62035;52.094;5.112;2022-08-01T07:26:15;9.40;;;2.60;;
62030;SDS011;62035;52.094;5.112;2022-08-01T07:28:43;10.30;;;2.70;;
62030;SDS011;62035;52.094;5.112;2022-08-01T07:31:10;10.30;;;2.50;;
62030;SDS011;62035;52.094;5.112;2022-08-01T07:33:38;14.48;;;2.65;;
62030;SDS011;62035;52.094;5.112;2022-08-01T07:36:05;16.38;;;2.63;;
62030;SDS011;62035;52.094;5.112;2022-08-01T07:38:33;9.93;;;2.17;;
62030;SDS011;62035;52.094;5.112;2022-08-01T07:41:01;10.55;;;2.47;;
62030;SDS011;62035;52.094;5.112;2022-08-01T07:43:30;17.13;;;2.65;;
62030;SDS011;62035;52.094;5.112;2022-08-01T07:45:57;11.93;;;2.53;;
62030;SDS011;62035;52.094;5.112;2022-08-01T07:48:25;15.25;;;2.95;;
62030;SDS011;62035;52.094;5.112;2022-08-01T07:50:52;9.15;;;2.17;;
62030;SDS011;62035;52.094;5.112;2022-08-01T07:53:20;6.35;;;2.25;;
62030;SDS011;62035;52.094;5.112;2022-08-01T07:55:48;11.05;;;1.70;;
62030;SDS011;62035;52.094;5.112;2022-08-01T07:58:16;12.02;;;2.17;;
62030;SDS011;62035;52.094;5.112;2022-08-01T08:00:45;8.68;;;2.40;;
62030;SDS011;62035;52.094;5.112;2022-08-01T08:03:12;10.27;;;2.30;;
62030;SDS011;62035;52.094;5.112;2022-08-01T08:05:40;12.75;;;2.47;;
62030;SDS011;62035;52.094;5.112;2022-08-01T08:08:08;11.30;;;2.40;;
62030;SDS011;62035;52.094;5.112;2022-08-01T08:10:37;9.30;;;2.35;;
62030;SDS011;62035;52.094;5.112;2022-08-01T08:13:04;9.13;;;2.08;;
62030;SDS011;62035;52.094;5.112;2022-08-01T08:15:32;10.15;;;2.10;;
62030;SDS011;62035;52.094;5.112;2022-08-01T08:18:01;12.95;;;2.10;;
62030;SDS011;62035;52.094;5.112;2022-08-01T08:20:30;10.00;;;1.90;;
62030;SDS011;62035;52.094;5.112;2022-08-01T08:22:57;7.60;;;1.90;;
62030;SDS011;62035;52.094;5.112;2022-08-01T08:25:25;12.68;;;2.22;;
62030;SDS011;62035;52.094;5.112;2022-08-01T08:27:54;10.63;;;2.25;;
62030;SDS011;62035;52.094;5.112;2022-08-01T08:30:22;9.93;;;2.08;;
62030;SDS011;62035;52.094;5.112;2022-08-01T08:32:50;9.55;;;1.85;;
62030;SDS011;62035;52.094;5.112;2022-08-01T08:35:19;12.50;;;2.03;;
62030;SDS011;62035;52.094;5.112;2022-08-01T08:37:47;11.82;;;1.90;;
62030;SDS011;62035;52.094;5.112;2022-08-01T08:40:15;8.30;;;1.90;;
62030;SDS011;62035;52.094;5.112;2022-08-01T08:42:43;9.48;;;2.25;;
62030;SDS011;62035;52.094;5.112;2022-08-01T08:45:12;12.20;;;1.73;;
62030;SDS011;62035;52.094;5.112;2022-08-01T08:47:40;10.90;;;1.80;;
62030;SDS011;62035;52.094;5.112;2022-08-01T08:50:12;10.05;;;2.17;;
62030;SDS011;62035;52.094;5.112;2022-08-01T08:52:41;7.40;;;1.70;;
62030;SDS011;62035;52.094;5.112;2022-08-01T08:55:13;7.72;;;1.90;;
62030;SDS011;62035;52.094;5.112;2022-08-01T08:57:44;6.50;;;2.17;;
62030;SDS011;62035;52.094;5.112;2022-08-01T09:00:13;10.65;;;1.88;;
62030;SDS011;62035;52.094;5.112;2022-08-01T09:02:42;14.05;;;2.08;;
62030;SDS011;62035;52.094;5.112;2022-08-01T09:05:10;8.90;;;1.92;;
62030;SDS011;62035;52.094;5.112;2022-08-01T09:07:38;10.63;;;2.08;;
62030;SDS011;62035;52.094;5.112;2022-08-01T09:10:08;9.75;;;1.90;;
62030;SDS011;62035;52.094;5.112;2022-08-01T09:12:36;7.40;;;1.95;;
62030;SDS011;62035;52.094;5.112;2022-08-01T09:15:04;7.68;;;2.28;;
62030;SDS011;62035;52.094;5.112;2022-08-01T09:17:39;12.05;;;1.98;;
62030;SDS011;62035;52.094;5.112;2022-08-01T09:20:07;7.80;;;1.83;;
62030;SDS011;62035;52.094;5.112;2022-08-01T09:22:50;11.05;;;1.98;;
62030;SDS011;62035;52.094;5.112;2022-08-01T09:25:19;13.73;;;2.08;;
62030;SDS011;62035;52.094;5.112;2022-08-01T09:27:47;6.63;;;2.00;;
62030;SDS011;62035;52.094;5.112;2022-08-01T09:30:15;11.68;;;1.98;;
62030;SDS011;62035;52.094;5.112;2022-08-01T09:32:54;12.05;;;2.03;;
62030;SDS011;62035;52.094;5.112;2022-08-01T09:35:24;7.63;;;1.92;;
62030;SDS011;62035;52.094;5.112;2022-08-01T09:38:04;7.50;;;1.73;;
62030;SDS011;62035;52.094;5.112;2022-08-01T09:40:50;10.25;;;2.00;;
62030;SDS011;62035;52.094;5.112;2022-08-01T09:43:20;19.30;;;2.55;;
62030;SDS011;62035;52.094;5.112;2022-08-01T09:45:50;14.82;;;1.73;;
62030;SDS011;62035;52.094;5.112;2022-08-01T09:48:18;12.15;;;1.85;;
62030;SDS011;62035;52.094;5.112;2022-08-01T09:50:47;10.77;;;2.00;;
62030;SDS011;62035;52.094;5.112;2022-08-01T09:53:17;6.22;;;1.70;;
62030;SDS011;62035;52.094;5.112;2022-08-01T09:55:45;8.18;;;2.00;;
62030;SDS011;62035;52.094;5.112;2022-08-01T09:58:18;11.98;;;1.73;;
62030;SDS011;62035;52.094;5.112;2022-08-01T10:00:57;5.75;;;1.50;;
62030;SDS011;62035;52.094;5.112;2022-08-01T10:03:26;6.15;;;1.67;;
62030;SDS011;62035;52.094;5.112;2022-08-01T10:05:55;10.55;;;1.80;;
62030;SDS011;62035;52.094;5.112;2022-08-01T10:08:24;5.45;;;1.55;;
62030;SDS011;62035;52.094;5.112;2022-08-01T10:11:07;6.57;;;1.83;;
62030;SDS011;62035;52.094;5.112;2022-08-01T10:13:39;5.05;;;1.65;;
62030;SDS011;62035;52.094;5.112;2022-08-01T10:16:07;9.77;;;1.52;;
62030;SDS011;62035;52.094;5.112;2022-08-01T10:18:36;5.78;;;2.20;;
62030;SDS011;62035;52.094;5.112;2022-08-01T10:21:08;5.45;;;1.60;;
62030;SDS011;62035;52.094;5.112;2022-08-01T10:23:38;6.30;;;1.92;;
62030;SDS011;62035;52.094;5.112;2022-08-01T10:26:06;11.52;;;2.35;;
62030;SDS011;62035;52.094;5.112;2022-08-01T10:28:38;7.47;;;2.17;;
62030;SDS011;62035;52.094;5.112;2022-08-01T10:31:11;8.77;;;1.98;;
62030;SDS011;62035;52.094;5.112;2022-08-01T10:33:40;8.63;;;1.75;;
62030;SDS011;62035;52.094;5.112;2022-08-01T10:36:08;11.13;;;1.80;;
62030;SDS011;62035;52.094;5.112;2022-08-01T10:38:37;6.28;;;1.50;;
62030;SDS011;62035;52.094;5.112;2022-08-01T10:41:07;7.47;;;1.98;;
62030;SDS011;62035;52.094;5.112;2022-08-01T10:43:36;9.02;;;1.60;;
62030;SDS011;62035;52.094;5.112;2022-08-01T10:46:05;8.50;;;2.20;;
62030;SDS011;62035;52.094;5.112;2022-08-01T10:48:35;10.20;;;1.90;;
62030;SDS011;62035;52.094;5.112;2022-08-01T10:51:11;15.40;;;2.20;;
62030;SDS011;62035;52.094;5.112;2022-08-01T10:53:45;4.20;;;1.40;;
62030;SDS011;62035;52.094;5.112;2022-08-01T10:56:15;6.88;;;1.58;;
62030;SDS011;62035;52.094;5.112;2022-08-01T10:58:43;10.85;;;2.10;;
62030;SDS011;62035;52.094;5.112;2022-08-01T11:01:20;6.28;;;1.40;;
62030;SDS011;62035;52.094;5.112;2022-08-01T11:03:57;8.25;;;1.48;;
62030;SDS011;62035;52.094;5.112;2022-08-01T11:06:55;5.95;;;1.83;;
62030;SDS011;62035;52.094;5.112;2022-08-01T11:09:38;6.43;;;1.60;;
62030;SDS011;62035;52.094;5.112;2022-08-01T11:12:09;9.40;;;2.00;;
62030;SDS011;62035;52.094;5.112;2022-08-01T11:17:54;9.57;;;2.00;;
62030;SDS011;62035;52.094;5.112;2022-08-01T11:20:23;8.85;;;1.60;;
62030;SDS011;62035;52.094;5.112;2022-08-01T11:28:34;9.60;;;1.77;;
62030;SDS011;62035;52.094;5.112;2022-08-01T11:34:00;12.10;;;1.83;;
62030;SDS011;62035;52.094;5.112;2022-08-01T11:36:28;10.07;;;2.03;;
62030;SDS011;62035;52.094;5.112;2022-08-01T11:39:15;5.43;;;1.75;;
62030;SDS011;62035;52.094;5.112;2022-08-01T11:41:44;9.98;;;1.42;;
62030;SDS011;62035;52.094;5.112;2022-08-01T11:44:16;8.10;;;1.50;;
62030;SDS011;62035;52.094;5.112;2022-08-01T11:46:52;6.55;;;1.55;;
62030;SDS011;62035;52.094;5.112;2022-08-01T11:49:34;4.72;;;1.40;;
62030;SDS011;62035;52.094;5.112;2022-08-01T11:52:17;6.15;;;1.50;;
62030;SDS011;62035;52.094;5.112;2022-08-01T11:54:51;9.43;;;1.27;;
62030;SDS011;62035;52.094;5.112;2022-08-01T11:57:22;6.22;;;1.48;;
62030;SDS011;62035;52.094;5.112;2022-08-01T11:59:52;4.63;;;1.60;;
62030;SDS011;62035;52.094;5.112;2022-08-01T12:02:23;7.38;;;1.60;;
62030;SDS011;62035;52.094;5.112;2022-08-01T12:04:55;5.40;;;1.35;;
62030;SDS011;62035;52.094;5.112;2022-08-01T12:07:25;7.93;;;2.00;;
62030;SDS011;62035;52.094;5.112;2022-08-01T12:09:58;8.40;;;1.90;;
62030;SDS011;62035;52.094;5.112;2022-08-01T12:12:30;7.28;;;1.58;;
62030;SDS011;62035;52.094;5.112;2022-08-01T12:15:00;4.07;;;1.33;;
62030;SDS011;62035;52.094;5.112;2022-08-01T12:17:34;4.15;;;1.13;;
62030;SDS011;62035;52.094;5.112;2022-08-01T12:20:05;6.63;;;1.35;;
62030;SDS011;62035;52.094;5.112;2022-08-01T12:22:36;5.03;;;1.40;;
62030;SDS011;62035;52.094;5.112;2022-08-01T12:25:05;4.97;;;1.20;;
62030;SDS011;62035;52.094;5.112;2022-08-01T12:27:35;3.90;;;1.10;;
62030;SDS011;62035;52.094;5.112;2022-08-01T12:30:05;4.00;;;1.15;;
62030;SDS011;62035;52.094;5.112;2022-08-01T12:32:35;3.60;;;1.02;;
62030;SDS011;62035;52.094;5.112;2022-08-01T12:35:08;1.85;;;0.85;;
62030;SDS011;62035;52.094;5.112;2022-08-01T12:37:38;2.63;;;1.30;;
62030;SDS011;62035;52.094;5.112;2022-08-01T12:40:10;3.25;;;1.00;;
62030;SDS011;62035;52.094;5.112;2022-08-01T12:42:44;3.25;;;1.15;;
62030;SDS011;62035;52.094;5.112;2022-08-01T12:45:15;3.05;;;1.00;;
62030;SDS011;62035;52.094;5.112;2022-08-01T12:47:48;1.70;;;0.90;;
62030;SDS011;62035;52.094;5.112;2022-08-01T12:50:20;3.10;;;0.82;;
62030;SDS011;62035;52.094;5.112;2022-08-01T12:52:50;3.80;;;1.10;;
62030;SDS011;62035;52.094;5.112;2022-08-01T12:55:19;10.20;;;1.35;;
62030;SDS011;62035;52.094;5.112;2022-08-01T12:57:50;5.25;;;1.20;;
62030;SDS011;62035;52.094;5.112;2022-08-01T13:03:02;5.38;;;1.20;;
62030;SDS011;62035;52.094;5.112;2022-08-01T13:05:44;5.28;;;1.60;;
62030;SDS011;62035;52.094;5.112;2022-08-01T13:08:14;3.03;;;1.02;;
62030;SDS011;62035;52.094;5.112;2022-08-01T13:10:44;3.20;;;1.08;;
62030;SDS011;62035;52.094;5.112;2022-08-01T13:13:13;2.88;;;1.05;;
62030;SDS011;62035;52.094;5.112;2022-08-01T13:15:43;6.45;;;1.00;;
62030;SDS011;62035;52.094;5.112;2022-08-01T13:18:24;2.72;;;1.10;;
62030;SDS011;62035;52.094;5.112;2022-08-01T13:21:08;4.85;;;1.30;;
62030;SDS011;62035;52.094;5.112;2022-08-01T13:23:38;3.67;;;1.20;;
62030;SDS011;62035;52.094;5.112;2022-08-01T13:26:37;3.80;;;1.25;;
62030;SDS011;62035;52.094;5.112;2022-08-01T13:29:06;3.28;;;1.17;;
62030;SDS011;62035;52.094;5.112;2022-08-01T13:31:36;3.58;;;1.30;;
62030;SDS011;62035;52.094;5.112;2022-08-01T13:34:06;6.07;;;1.40;;
62030;SDS011;62035;52.094;5.112;2022-08-01T13:36:36;6.25;;;1.27;;
62030;SDS011;62035;52.094;5.112;2022-08-01T13:39:05;2.63;;;1.00;;
62030;SDS011;62035;52.094;5.112;2022-08-01T13:41:51;3.50;;;1.40;;
62030;SDS011;62035;52.094;5.112;2022-08-01T13:44:19;8.70;;;1.17;;
62030;SDS011;62035;52.094;5.112;2022-08-01T13:46:47;5.45;;;1.20;;
62030;SDS011;62035;52.094;5.112;2022-08-01T13:49:14;2.72;;;1.13;;
62030;SDS011;62035;52.094;5.112;2022-08-01T13:51:43;3.65;;;1.08;;
62030;SDS011;62035;52.094;5.112;2022-08-01T13:54:12;8.70;;;1.25;;
62030;SDS011;62035;52.094;5.112;2022-08-01T13:56:39;3.00;;;0.93;;
62030;SDS011;62035;52.094;5.112;2022-08-01T13:59:07;2.95;;;1.00;;
62030;SDS011;62035;52.094;5.112;2022-08-01T14:01:35;3.88;;;1.25;;
62030;SDS011;62035;52.094;5.112;2022-08-01T14:04:03;4.40;;;1.27;;
62030;SDS011;62035;52.094;5.112;2022-08-01T14:06:31;6.43;;;1.30;;
62030;SDS011;62035;52.094;5.112;2022-08-01T14:09:02;5.57;;;1.17;;
62030;SDS011;62035;52.094;5.112;2022-08-01T14:11:30;5.32;;;1.42;;
62030;SDS011;62035;52.094;5.112;2022-08-01T14:13:58;3.03;;;1.08;;
62030;SDS011;62035;52.094;5.112;2022-08-01T14:16:25;3.63;;;1.05;;
62030;SDS011;62035;52.094;5.112;2022-08-01T14:18:53;3.50;;;1.15;;
62030;SDS011;62035;52.094;5.112;2022-08-01T14:21:23;3.65;;;1.60;;
62030;SDS011;62035;52.094;5.112;2022-08-01T14:23:51;4.70;;;1.13;;
62030;SDS011;62035;52.094;5.112;2022-08-01T14:26:20;2.75;;;1.08;;
62030;SDS011;62035;52.094;5.112;2022-08-01T14:28:47;4.03;;;1.40;;
62030;SDS011;62035;52.094;5.112;2022-08-01T14:31:15;7.47;;;1.20;;
62030;SDS011;62035;52.094;5.112;2022-08-01T14:33:42;4.68;;;1.30;;
62030;SDS011;62035;52.094;5.112;2022-08-01T14:36:10;5.07;;;1.17;;
62030;SDS011;62035;52.094;5.112;2022-08-01T14:38:37;3.47;;;1.02;;
62030;SDS011;62035;52.094;5.112;2022-08-01T14:41:05;5.97;;;1.30;;
62030;SDS011;62035;52.094;5.112;2022-08-01T14:43:34;4.60;;;1.00;;
62030;SDS011;62035;52.094;5.112;2022-08-01T14:46:02;7.63;;;1.08;;
62030;SDS011;62035;52.094;5.112;2022-08-01T14:48:30;3.55;;;1.05;;
62030;SDS011;62035;52.094;5.112;2022-08-01T14:50:58;2.95;;;1.33;;
62030;SDS011;62035;52.094;5.112;2022-08-01T14:53:28;3.30;;;1.20;;
62030;SDS011;62035;52.094;5.112;2022-08-01T14:55:55;5.75;;;1.40;;
62030;SDS011;62035;52.094;5.112;2022-08-01T14:58:25;5.63;;;1.25;;
62030;SDS011;62035;52.094;5.112;2022-08-01T15:00:54;3.05;;;1.17;;
62030;SDS011;62035;52.094;5.112;2022-08-01T15:03:21;3.80;;;1.27;;
62030;SDS011;62035;52.094;5.112;2022-08-01T15:05:51;2.60;;;1.15;;
62030;SDS011;62035;52.094;5.112;2022-08-01T15:08:19;3.30;;;1.30;;
62030;SDS011;62035;52.094;5.112;2022-08-01T15:10:47;5.57;;;1.33;;
62030;SDS011;62035;52.094;5.112;2022-08-01T15:13:14;11.10;;;2.88;;
62030;SDS011;62035;52.094;5.112;2022-08-01T15:15:42;7.70;;;1.50;;
62030;SDS011;62035;52.094;5.112;2022-08-01T15:18:11;8.07;;;3.03;;